Time;durP1;ratioP1;P1;durP2;ratioP2;P2;SDS_P1;SDS_P2;PMS_P1;PMS_P2;Temp;Humidity;BMP_temperature;BMP_pressure;BME280_temperature;BME280_humidity;BME280_pressure;Samples;Min_cycle;Max_cycle;Signal;HPM_P1;HPM_P2
2022/03/01 00:02:23;;;;;;;4.90;1.42;;;;;;;4.01;67.68;102506.59;4952898;28;20074;-60
2022/03/01 00:04:48;;;;;;;7.43;2.03;;;;;;;4.07;67.42;102505.53;4951864;28;20062;-53
2022/03/01 00:07:14;;;;;;;5.22;2.00;;;;;;;4.06;67.93;102496.75;4950016;28;20571;-56
2022/03/01 00:09:39;;;;;;;5.80;1.45;;;;;;;4.03;67.25;102497.28;4959241;28;20035;-58
2022/03/01 00:12:05;;;;;;;6.65;2.00;;;;;;;4.02;67.46;102497.53;4952878;28;20046;-59
2022/03/01 00:14:31;;;;;;;4.65;1.60;;;;;;;4.01;66.21;102493.25;4950789;28;20631;-49
2022/03/01 00:16:56;;;;;;;6.22;1.52;;;;;;;3.95;67.26;102492.47;4968136;28;20414;-55
2022/03/01 00:19:22;;;;;;;5.43;1.55;;;;;;;3.98;67.15;102496.47;4965731;28;20031;-57
2022/03/01 00:21:47;;;;;;;3.08;1.75;;;;;;;3.93;67.25;102491.94;4953994;28;20043;-55
2022/03/01 00:24:13;;;;;;;5.20;1.40;;;;;;;4.01;67.82;102482.59;4958645;28;20602;-57
2022/03/01 00:26:38;;;;;;;2.58;1.60;;;;;;;4.00;67.97;102489.81;4966283;28;20061;-57
2022/03/01 00:29:04;;;;;;;3.85;1.63;;;;;;;4.01;66.02;102501.25;4960089;28;20074;-57
2022/03/01 00:31:29;;;;;;;5.72;1.52;;;;;;;4.04;65.84;102490.09;4953218;28;20094;-59
2022/03/01 00:33:55;;;;;;;5.20;1.30;;;;;;;3.93;66.83;102488.47;4975083;28;20433;-60
2022/03/01 00:36:20;;;;;;;6.20;2.10;;;;;;;3.86;67.30;102493.25;4950063;28;20031;-53
2022/03/01 00:38:46;;;;;;;4.63;1.63;;;;;;;3.90;67.54;102491.66;4950722;28;20502;-53
2022/03/01 00:41:11;;;;;;;3.72;1.98;;;;;;;3.95;66.31;102483.69;4964358;28;20271;-57
2022/03/01 00:43:36;;;;;;;4.75;1.60;;;;;;;3.94;66.03;102488.22;4962778;28;20414;-54
2022/03/01 00:46:02;;;;;;;4.15;1.55;;;;;;;3.94;66.26;102487.41;4957140;28;20273;-53
2022/03/01 00:48:28;;;;;;;6.63;2.45;;;;;;;3.99;66.49;102493.53;4968507;28;20745;-55
2022/03/01 00:50:53;;;;;;;3.30;1.58;;;;;;;3.90;65.85;102489.81;4965541;28;20041;-54
2022/03/01 00:53:18;;;;;;;2.92;1.23;;;;;;;3.80;65.94;102495.09;4945441;28;20145;-57
2022/03/01 00:55:44;;;;;;;4.20;1.83;;;;;;;3.82;66.43;102486.84;4950999;28;20097;-55
2022/03/01 00:58:09;;;;;;;2.88;1.13;;;;;;;3.83;66.84;102483.13;4967106;28;20397;-54
2022/03/01 01:00:35;;;;;;;5.38;1.58;;;;;;;3.83;66.63;102485.78;4966021;28;20114;-55
2022/03/01 01:03:01;;;;;;;5.03;1.27;;;;;;;3.76;66.59;102488.69;4970085;28;20508;-55
2022/03/01 01:05:27;;;;;;;4.28;2.05;;;;;;;3.84;66.29;102474.88;4958725;28;20040;-56
2022/03/01 01:07:53;;;;;;;6.78;2.55;;;;;;;3.79;66.67;102487.38;4964907;28;20043;-55
2022/03/01 01:10:19;;;;;;;3.25;1.40;;;;;;;3.80;66.48;102479.13;4970037;28;20130;-53
2022/03/01 01:12:45;;;;;;;2.38;1.55;;;;;;;3.78;66.70;102467.13;4963152;28;20161;-49
2022/03/01 01:15:11;;;;;;;6.45;1.85;;;;;;;3.61;67.45;102468.19;4955460;28;20499;-52
2022/03/01 01:17:37;;;;;;;4.53;1.27;;;;;;;3.65;67.70;102466.59;4956696;28;20062;-53
2022/03/01 01:20:04;;;;;;;6.50;1.75;;;;;;;3.56;68.02;102460.16;4955760;28;20073;-55
2022/03/01 01:22:42;;;;;;;4.65;1.50;;;;;;;3.58;67.30;102468.69;4969620;28;20039;-54
2022/03/01 01:25:11;;;;;;;5.60;1.67;;;;;;;3.52;66.98;102467.06;4972803;28;20043;-56
2022/03/01 01:27:40;;;;;;;4.30;1.30;;;;;;;3.45;67.98;102463.88;4962408;28;20066;-53
2022/03/01 01:30:07;;;;;;;6.20;1.88;;;;;;;3.47;68.12;102472.38;4972223;28;20184;-49
2022/03/01 01:32:32;;;;;;;6.13;1.63;;;;;;;3.58;67.82;102475.91;4972271;28;20045;-52
2022/03/01 01:34:58;;;;;;;5.60;1.70;;;;;;;3.54;67.49;102459.63;4971837;28;20113;-52
2022/03/01 01:37:23;;;;;;;5.75;1.45;;;;;;;3.56;67.04;102464.72;4968761;28;20314;-55
2022/03/01 01:39:49;;;;;;;5.40;1.73;;;;;;;3.55;66.70;102466.56;4971734;28;20035;-53
2022/03/01 01:42:14;;;;;;;4.38;1.83;;;;;;;3.54;66.65;102464.94;4970981;28;20464;-57
2022/03/01 01:44:42;;;;;;;5.05;1.40;;;;;;;3.57;67.28;102469.75;4944780;28;20035;-52
2022/03/01 01:47:08;;;;;;;6.20;1.88;;;;;;;3.60;66.46;102458.56;4972042;28;20409;-51
2022/03/01 01:49:34;;;;;;;4.43;1.50;;;;;;;3.62;66.41;102463.63;4971092;28;20023;-51
2022/03/01 01:51:59;;;;;;;1.73;1.33;;;;;;;3.54;65.73;102451.63;4972342;28;20035;-56
2022/03/01 01:54:25;;;;;;;7.45;1.58;;;;;;;3.51;65.66;102454.84;4961043;28;20427;-54
2022/03/01 01:56:50;;;;;;;3.97;1.52;;;;;;;3.43;66.60;102444.69;4954181;28;20498;-57
2022/03/01 01:59:16;;;;;;;4.75;2.03;;;;;;;3.43;67.38;102449.19;4965797;28;20073;-49
2022/03/01 02:01:42;;;;;;;7.80;2.08;;;;;;;3.38;67.16;102441.22;4945412;28;20031;-53
2022/03/01 02:04:07;;;;;;;1.75;1.40;;;;;;;3.38;67.72;102444.69;4947681;29;20130;-52
2022/03/01 02:06:36;;;;;;;5.15;2.00;;;;;;;3.38;67.27;102447.34;4946000;28;20158;-53
2022/03/01 02:09:02;;;;;;;3.88;1.75;;;;;;;3.36;68.17;102443.34;4971571;28;20101;-52
2022/03/01 02:11:27;;;;;;;6.95;2.13;;;;;;;3.35;67.38;102441.72;4963912;28;20458;-55
2022/03/01 02:13:53;;;;;;;3.40;1.70;;;;;;;3.46;67.84;102438.84;4955943;28;20109;-58
2022/03/01 02:16:18;;;;;;;7.00;1.48;;;;;;;3.34;67.58;102435.63;4964832;28;20498;-49
2022/03/01 02:18:44;;;;;;;2.83;1.17;;;;;;;3.29;66.93;102424.94;4971767;28;20038;-54
2022/03/01 02:21:09;;;;;;;6.80;1.85;;;;;;;3.30;66.99;102442.53;4967004;28;20529;-58
2022/03/01 02:23:35;;;;;;;2.95;1.33;;;;;;;3.18;67.54;102430.50;4966909;28;20043;-52
2022/03/01 02:26:00;;;;;;;6.93;2.40;;;;;;;3.18;68.79;102427.84;4960162;28;20034;-57
2022/03/01 02:28:26;;;;;;;4.78;2.08;;;;;;;3.16;68.53;102428.09;4968730;28;20042;-55
2022/03/01 02:30:51;;;;;;;3.05;1.27;;;;;;;3.13;68.91;102435.81;4970578;28;20022;-54
2022/03/01 02:33:17;;;;;;;3.95;1.38;;;;;;;3.22;68.67;102435.03;4971720;28;20077;-56
2022/03/01 02:35:42;;;;;;;4.72;1.45;;;;;;;3.18;67.35;102409.19;4971487;28;20040;-54
2022/03/01 02:38:07;;;;;;;3.05;1.52;;;;;;;3.08;68.54;102412.63;4958057;28;20049;-57
2022/03/01 02:40:33;;;;;;;4.28;1.60;;;;;;;3.05;68.54;102418.50;4954492;28;20034;-53
2022/03/01 02:42:59;;;;;;;5.13;2.30;;;;;;;3.06;69.00;102414.75;4971079;28;20030;-55
2022/03/01 02:45:24;;;;;;;3.92;1.70;;;;;;;3.07;68.25;102426.22;4972035;28;20066;-58
2022/03/01 02:47:50;;;;;;;5.25;1.85;;;;;;;3.06;68.38;102420.06;4968817;28;20030;-56
2022/03/01 02:50:17;;;;;;;5.18;2.22;;;;;;;3.03;68.21;102415.28;4963882;28;20402;-54
2022/03/01 02:52:42;;;;;;;2.95;1.35;;;;;;;3.02;68.22;102413.66;4970768;28;20109;-55
2022/03/01 02:55:09;;;;;;;6.70;1.85;;;;;;;3.02;67.73;102410.22;4973047;28;20348;-55
2022/03/01 02:57:35;;;;;;;4.13;1.65;;;;;;;3.07;68.11;102419.03;4970055;28;20043;-54
2022/03/01 03:00:00;;;;;;;4.40;1.75;;;;;;;3.03;68.01;102415.28;4971627;28;20540;-55
2022/03/01 03:02:26;;;;;;;5.80;2.28;;;;;;;3.05;67.90;102421.16;4954949;28;20035;-58
2022/03/01 03:04:51;;;;;;;2.60;1.65;;;;;;;3.01;67.64;102419.25;4954576;28;20489;-57
2022/03/01 03:07:16;;;;;;;5.70;1.63;;;;;;;2.96;67.44;102411.28;4965351;28;20050;-55
2022/03/01 03:09:42;;;;;;;2.42;1.30;;;;;;;2.92;68.01;102403.00;4964310;28;20062;-56
2022/03/01 03:12:11;;;;;;;14.60;2.05;;;;;;;2.92;68.53;102402.22;4969882;28;20375;-53
2022/03/01 03:14:37;;;;;;;5.75;1.92;;;;;;;2.93;67.44;102414.44;4961712;28;20035;-52
2022/03/01 03:17:03;;;;;;;9.63;1.98;;;;;;;2.84;68.01;102416.00;4950963;28;20038;-56
2022/03/01 03:19:29;;;;;;;3.55;1.65;;;;;;;2.79;68.26;102413.31;4953132;28;20683;-55
2022/03/01 03:21:54;;;;;;;2.75;1.92;;;;;;;2.80;67.90;102404.28;4968571;28;20046;-49
2022/03/01 03:24:21;;;;;;;6.25;2.45;;;;;;;2.80;68.13;102409.59;4945796;28;20068;-56
2022/03/01 03:26:46;;;;;;;4.07;1.70;;;;;;;2.85;68.27;102402.44;4971215;28;20383;-52
2022/03/01 03:29:12;;;;;;;2.28;1.40;;;;;;;2.69;67.69;102396.25;4970040;28;20042;-58
2022/03/01 03:31:42;;;;;;;5.32;2.00;;;;;;;2.70;68.16;102391.72;4968263;28;20105;-54
2022/03/01 03:34:09;;;;;;;7.27;1.57;;;;;;;2.71;68.63;102385.34;4968455;28;20056;-52
2022/03/01 03:36:36;;;;;;;5.20;1.60;;;;;;;2.71;69.25;102396.78;4971063;28;20042;-50
2022/03/01 03:39:04;;;;;;;5.05;2.05;;;;;;;2.67;69.10;102389.59;4970496;28;20034;-53
2022/03/01 03:41:30;;;;;;;3.28;1.48;;;;;;;2.73;68.75;102385.88;4960067;28;20038;-59
2022/03/01 03:43:55;;;;;;;4.38;1.25;;;;;;;2.67;68.53;102390.38;4970935;28;20113;-53
2022/03/01 03:46:21;;;;;;;3.47;1.55;;;;;;;2.61;68.02;102390.63;4970267;28;20049;-55
2022/03/01 03:48:48;;;;;;;2.20;1.17;;;;;;;2.63;68.11;102380.53;4968309;28;20065;-52
2022/03/01 03:51:14;;;;;;;5.85;1.70;;;;;;;2.56;68.54;102380.75;4946269;28;20545;-53
2022/03/01 03:53:39;;;;;;;3.17;1.77;;;;;;;2.60;68.37;102381.03;4956811;28;20085;-57
2022/03/01 03:56:05;;;;;;;2.83;1.55;;;;;;;2.52;68.54;102387.66;4970377;28;20421;-57
2022/03/01 03:58:30;;;;;;;3.17;1.40;;;;;;;2.58;67.96;102383.16;4966782;28;20034;-59
2022/03/01 04:00:57;;;;;;;2.92;1.98;;;;;;;2.42;68.80;102382.28;4973163;28;20038;-50
2022/03/01 04:03:23;;;;;;;1.75;1.48;;;;;;;2.33;68.80;102386.47;4967256;28;20069;-56
2022/03/01 04:05:50;;;;;;;2.80;1.80;;;;;;;2.33;69.69;102383.81;4956898;28;20034;-55
2022/03/01 04:08:16;;;;;;;3.75;1.20;;;;;;;2.41;69.18;102375.38;4962978;28;20085;-52
2022/03/01 04:10:43;;;;;;;8.60;1.52;;;;;;;2.41;69.27;102385.19;4969894;28;20055;-51
2022/03/01 04:13:08;;;;;;;4.63;1.70;;;;;;;2.42;69.92;102392.13;4970317;28;20367;-50
2022/03/01 04:15:34;;;;;;;3.65;1.45;;;;;;;2.47;68.87;102378.84;4943027;28;20039;-51
2022/03/01 04:18:00;;;;;;;4.50;1.77;;;;;;;2.40;68.72;102375.63;4975063;28;20081;-55
2022/03/01 04:20:25;;;;;;;6.32;1.58;;;;;;;2.32;69.14;102392.06;4969203;28;20035;-56
2022/03/01 04:22:51;;;;;;;3.67;1.88;;;;;;;2.25;69.89;102384.28;4970619;28;20042;-48
2022/03/01 04:25:16;;;;;;;4.80;1.45;;;;;;;2.27;70.12;102373.41;4963890;28;20034;-49
2022/03/01 04:27:42;;;;;;;3.85;1.70;;;;;;;2.31;69.56;102382.47;4968761;28;20085;-54
2022/03/01 04:30:11;;;;;;;2.83;1.77;;;;;;;2.26;70.07;102366.50;4952255;28;20047;-48
2022/03/01 04:32:37;;;;;;;3.17;1.42;;;;;;;2.26;69.65;102356.69;4960054;28;20098;-51
2022/03/01 04:35:03;;;;;;;2.60;1.40;;;;;;;2.21;69.99;102359.28;4959443;28;20043;-51
2022/03/01 04:37:29;;;;;;;4.28;1.70;;;;;;;2.32;70.09;102360.94;4959097;28;20038;-54
2022/03/01 04:39:54;;;;;;;2.05;1.45;;;;;;;2.14;70.63;102352.59;4959674;28;20126;-53
2022/03/01 04:42:20;;;;;;;2.33;1.50;;;;;;;2.07;70.74;102347.50;4956581;28;20042;-54
2022/03/01 04:44:45;;;;;;;3.63;2.13;;;;;;;2.14;70.88;102341.97;4970639;28;20367;-49
2022/03/01 04:47:11;;;;;;;3.42;1.48;;;;;;;2.23;70.74;102351.88;4973830;28;20117;-49
2022/03/01 04:49:37;;;;;;;12.05;2.30;;;;;;;2.18;70.22;102349.19;4972840;28;20170;-53
2022/03/01 04:52:03;;;;;;;2.08;1.08;;;;;;;2.12;71.38;102365.34;4967621;28;20113;-54
2022/03/01 04:54:28;;;;;;;3.97;1.75;;;;;;;2.18;70.86;102364.31;4977899;28;20066;-53
2022/03/01 04:56:54;;;;;;;3.83;1.92;;;;;;;2.20;70.57;102364.88;4976804;28;20429;-53
2022/03/01 04:59:19;;;;;;;2.28;1.73;;;;;;;2.11;71.14;102359.22;4958904;28;20034;-60
2022/03/01 05:01:45;;;;;;;2.35;1.80;;;;;;;2.11;71.01;102363.75;4962627;28;20374;-50
2022/03/01 05:04:10;;;;;;;3.20;1.25;;;;;;;2.15;71.03;102354.22;4976206;28;20065;-50
2022/03/01 05:06:36;;;;;;;6.60;1.83;;;;;;;2.03;71.69;102351.75;4973045;28;20090;-49
2022/03/01 05:09:02;;;;;;;6.13;1.63;;;;;;;1.98;71.57;102351.69;4970151;28;20486;-48
2022/03/01 05:11:27;;;;;;;3.33;1.30;;;;;;;2.02;72.07;102344.81;4973313;28;20042;-49
2022/03/01 05:13:53;;;;;;;2.72;1.15;;;;;;;2.13;70.79;102356.34;4956372;28;20050;-55
2022/03/01 05:16:18;;;;;;;4.22;1.80;;;;;;;2.09;71.45;102355.25;4973736;28;20058;-50
2022/03/01 05:18:43;;;;;;;3.25;1.45;;;;;;;2.16;71.00;102347.84;4950668;28;20051;-48
2022/03/01 05:21:09;;;;;;;3.22;1.63;;;;;;;1.97;71.92;102362.59;4957984;28;20031;-56
2022/03/01 05:23:34;;;;;;;2.75;1.02;;;;;;;1.91;72.09;102352.97;4963760;28;20047;-51
2022/03/01 05:26:00;;;;;;;2.22;1.67;;;;;;;1.93;72.18;102353.53;4973163;28;20089;-50
2022/03/01 05:28:25;;;;;;;9.38;2.00;;;;;;;1.98;72.62;102356.22;4972262;28;20039;-56
2022/03/01 05:30:51;;;;;;;4.97;2.13;;;;;;;1.85;72.79;102346.84;4972201;28;20034;-51
2022/03/01 05:33:17;;;;;;;4.13;1.67;;;;;;;1.93;73.24;102351.69;4958948;28;20045;-50
2022/03/01 05:35:44;;;;;;;4.50;1.92;;;;;;;2.01;72.52;102364.50;4972979;28;20022;-52
2022/03/01 05:38:10;;;;;;;4.18;1.48;;;;;;;1.97;72.02;102352.78;4974792;28;20039;-50
2022/03/01 05:40:37;;;;;;;4.20;1.58;;;;;;;1.93;72.55;102358.84;4967119;28;20022;-56
2022/03/01 05:43:05;;;;;;;4.05;1.30;;;;;;;1.81;73.03;102359.81;4963576;28;20393;-49
2022/03/01 05:45:31;;;;;;;3.53;1.30;;;;;;;1.74;73.83;102353.13;4964014;28;20035;-56
2022/03/01 05:47:57;;;;;;;4.22;2.08;;;;;;;1.77;73.30;102356.06;4960004;28;20089;-54
2022/03/01 05:50:23;;;;;;;2.63;1.67;;;;;;;1.83;73.53;102346.28;4962518;28;20031;-54
2022/03/01 05:52:49;;;;;;;2.55;2.15;;;;;;;1.74;74.20;102367.19;4938300;28;20134;-53
2022/03/01 05:55:15;;;;;;;5.15;1.40;;;;;;;1.75;74.67;102349.41;4959451;28;20145;-50
2022/03/01 05:57:41;;;;;;;2.85;1.88;;;;;;;1.72;74.63;102356.00;4965792;28;20485;-51
2022/03/01 06:00:12;;;;;;;10.43;2.10;;;;;;;1.73;74.73;102362.13;4961111;28;20027;-49
2022/03/01 06:02:41;;;;;;;8.18;1.42;;;;;;;1.73;74.58;102362.94;4956574;28;20031;-50
2022/03/01 06:05:07;;;;;;;3.72;1.88;;;;;;;1.68;74.25;102354.13;4970823;28;20087;-56
2022/03/01 06:07:33;;;;;;;2.80;2.10;;;;;;;1.68;75.02;102360.22;4961893;28;20045;-53
2022/03/01 06:09:59;;;;;;;2.95;2.17;;;;;;;1.71;74.36;102358.94;4965530;28;20075;-54
2022/03/01 06:12:24;;;;;;;4.80;1.55;;;;;;;1.75;74.66;102360.03;4963474;28;20034;-54
2022/03/01 06:14:50;;;;;;;5.72;1.13;;;;;;;1.65;75.27;102363.41;4966501;28;20034;-49
2022/03/01 06:17:15;;;;;;;2.75;1.60;;;;;;;1.66;75.35;102349.09;4963902;28;20500;-58
2022/03/01 06:19:41;;;;;;;5.00;1.27;;;;;;;1.77;75.18;102352.59;4944388;28;20549;-53
2022/03/01 06:22:06;;;;;;;11.98;1.80;;;;;;;1.75;75.21;102362.69;4958334;28;20121;-60
2022/03/01 06:24:33;;;;;;;4.22;2.00;;;;;;;1.80;74.97;102358.22;4962001;28;20102;-57
2022/03/01 06:26:59;;;;;;;9.02;2.03;;;;;;;1.77;75.11;102353.41;4947370;28;20031;-55
2022/03/01 06:29:24;;;;;;;2.60;0.95;;;;;;;1.82;74.84;102356.09;4961409;28;20120;-55
2022/03/01 06:31:50;;;;;;;5.50;2.47;;;;;;;1.87;74.79;102357.19;4943371;28;20031;-54
2022/03/01 06:34:15;;;;;;;3.60;2.10;;;;;;;1.82;74.40;102356.09;4952114;28;20031;-55
2022/03/01 06:36:41;;;;;;;3.70;1.58;;;;;;;1.80;74.88;102362.75;4955287;28;20471;-59
2022/03/01 06:39:06;;;;;;;3.83;1.42;;;;;;;1.82;74.58;102353.44;4966238;28;20042;-54
2022/03/01 06:41:32;;;;;;;8.60;2.33;;;;;;;1.78;75.55;102355.00;4961862;28;20035;-59
2022/03/01 06:43:57;;;;;;;3.50;1.90;;;;;;;1.84;75.08;102358.50;4965042;28;20113;-59
2022/03/01 06:46:22;;;;;;;2.80;1.50;;;;;;;1.98;74.98;102364.16;4930237;28;20054;-56
2022/03/01 06:48:48;;;;;;;6.13;2.00;;;;;;;1.97;75.04;102365.25;4949131;28;20051;-52
2022/03/01 06:51:14;;;;;;;4.95;1.45;;;;;;;2.03;74.43;102372.19;4949774;28;20115;-60
2022/03/01 06:53:40;;;;;;;3.70;1.33;;;;;;;2.02;74.41;102374.03;4963108;28;20039;-61
2022/03/01 06:56:05;;;;;;;4.10;1.95;;;;;;;1.90;74.14;102362.78;4965563;28;20905;-56
2022/03/01 06:58:31;;;;;;;4.40;1.73;;;;;;;1.94;74.16;102358.56;4965562;28;20425;-60
2022/03/01 07:00:57;;;;;;;9.60;2.40;;;;;;;2.01;74.95;102355.72;4957992;28;20060;-58
2022/03/01 07:03:23;;;;;;;3.88;2.03;;;;;;;1.91;74.87;102355.63;4959078;28;20471;-60
2022/03/01 07:05:49;;;;;;;3.40;1.55;;;;;;;1.98;74.68;102361.50;4953195;28;20297;-60
2022/03/01 07:08:15;;;;;;;2.63;1.60;;;;;;;2.02;75.04;102362.63;4932589;28;20039;-58
2022/03/01 07:10:41;;;;;;;7.43;2.33;;;;;;;2.02;74.90;102365.28;4954579;28;20102;-52
2022/03/01 07:13:07;;;;;;;3.95;1.75;;;;;;;2.07;74.83;102354.69;4954242;28;20043;-60
2022/03/01 07:15:34;;;;;;;8.40;2.53;;;;;;;2.16;74.45;102353.16;4966446;28;20022;-61
2022/03/01 07:18:01;;;;;;;2.45;1.48;;;;;;;2.02;74.83;102362.63;4959412;28;20043;-58
2022/03/01 07:20:26;;;;;;;2.95;1.67;;;;;;;2.03;74.53;102359.72;4960349;28;20030;-60
2022/03/01 07:22:52;;;;;;;8.07;2.20;;;;;;;2.02;74.85;102357.31;4965969;28;20035;-61
2022/03/01 07:25:17;;;;;;;1.20;0.90;;;;;;;2.09;74.77;102357.91;4938031;28;20066;-57
2022/03/01 07:27:52;;;;;;;3.65;1.45;;;;;;;2.14;74.07;102361.38;4957873;28;20215;-58
2022/03/01 07:30:20;;;;;;;3.25;1.52;;;;;;;2.12;73.92;102349.41;4953199;28;20085;-59
2022/03/01 07:32:46;;;;;;;4.95;2.20;;;;;;;2.21;74.97;102355.81;4950304;28;20431;-61
2022/03/01 07:35:11;;;;;;;4.25;2.22;;;;;;;2.31;74.58;102359.34;4962890;28;20118;-60
2022/03/01 07:37:37;;;;;;;3.15;1.45;;;;;;;2.51;73.19;102348.84;4956875;28;20126;-61
2022/03/01 07:40:07;;;;;;;6.35;2.03;;;;;;;2.55;73.45;102349.13;4931040;28;20106;-61
2022/03/01 07:42:32;;;;;;;3.58;1.67;;;;;;;2.70;71.87;102354.50;4954612;28;20035;-61
2022/03/01 07:44:58;;;;;;;5.10;2.45;;;;;;;2.82;71.44;102338.31;4968117;28;20548;-56
2022/03/01 07:47:23;;;;;;;8.98;1.90;;;;;;;3.05;71.99;102348.50;4951505;28;20030;-61
2022/03/01 07:49:49;;;;;;;5.50;2.15;;;;;;;3.31;71.30;102358.16;4941548;28;20035;-60
2022/03/01 07:52:15;;;;;;;7.95;2.10;;;;;;;3.37;70.16;102347.22;4924349;28;20039;-55
2022/03/01 07:54:41;;;;;;;8.55;1.85;;;;;;;3.63;68.68;102356.84;4967278;28;20038;-61
2022/03/01 07:57:06;;;;;;;5.68;2.35;;;;;;;3.68;66.66;102353.38;4967570;28;20045;-56
2022/03/01 07:59:32;;;;;;;9.52;2.35;;;;;;;3.77;66.71;102351.00;4960397;28;20031;-61
2022/03/01 08:01:57;;;;;;;7.22;1.88;;;;;;;3.90;66.35;102359.25;4953946;28;20414;-61
2022/03/01 08:04:23;;;;;;;6.32;2.20;;;;;;;3.87;65.87;102364.31;4928725;28;20042;-57
2022/03/01 08:06:49;;;;;;;4.85;2.05;;;;;;;3.92;65.50;102369.63;4956296;28;20069;-56
2022/03/01 08:09:15;;;;;;;6.57;2.55;;;;;;;3.81;65.15;102363.53;4953316;28;20039;-58
2022/03/01 08:11:40;;;;;;;13.43;2.63;;;;;;;3.77;65.12;102365.13;4955802;28;20102;-60
2022/03/01 08:14:06;;;;;;;3.78;2.10;;;;;;;3.68;66.15;102377.34;4959314;28;20027;-61
2022/03/01 08:16:31;;;;;;;4.07;2.25;;;;;;;3.65;66.97;102373.38;4955812;28;20453;-58
2022/03/01 08:18:57;;;;;;;4.63;1.98;;;;;;;3.69;66.28;102376.31;4962983;28;20452;-55
2022/03/01 08:21:22;;;;;;;5.65;2.15;;;;;;;3.66;66.91;102374.16;4956805;28;20034;-61
2022/03/01 08:23:48;;;;;;;5.80;2.03;;;;;;;3.71;67.61;102370.69;4957578;28;20030;-58
2022/03/01 08:26:13;;;;;;;3.83;1.50;;;;;;;3.93;65.57;102355.25;4953536;28;20043;-61
2022/03/01 08:28:40;;;;;;;8.45;2.67;;;;;;;3.82;66.21;102350.97;4964267;28;20122;-56
2022/03/01 08:31:06;;;;;;;5.13;2.15;;;;;;;3.97;66.85;102335.78;4968819;28;20114;-58
2022/03/01 08:33:33;;;;;;;5.20;2.60;;;;;;;4.16;66.19;102336.81;4966057;28;20125;-58
2022/03/01 08:35:59;;;;;;;7.22;2.35;;;;;;;4.35;65.31;102334.38;4969974;28;20115;-59
2022/03/01 08:38:25;;;;;;;7.10;2.85;;;;;;;4.53;65.32;102337.25;4963446;28;20043;-59
2022/03/01 08:40:51;;;;;;;4.13;1.88;;;;;;;4.80;63.72;102336.84;4965466;28;20080;-58
2022/03/01 08:43:17;;;;;;;8.32;2.50;;;;;;;5.13;63.10;102354.84;4963628;28;20046;-55
2022/03/01 08:45:43;;;;;;;6.55;3.53;;;;;;;5.27;62.73;102345.16;4962194;28;20030;-58
2022/03/01 08:48:09;;;;;;;6.25;2.90;;;;;;;5.47;61.44;102349.56;4968184;28;20037;-56
2022/03/01 08:50:35;;;;;;;8.30;2.88;;;;;;;5.63;61.30;102345.72;4965205;28;20018;-62
2022/03/01 08:53:00;;;;;;;10.20;3.38;;;;;;;5.70;60.24;102351.53;4965955;28;20362;-59
2022/03/01 08:55:27;;;;;;;7.93;3.00;;;;;;;5.83;59.18;102345.56;4972417;28;20449;-61
2022/03/01 08:57:53;;;;;;;7.03;3.03;;;;;;;5.71;58.84;102344.31;4962078;28;20490;-55
2022/03/01 09:00:18;;;;;;;8.05;2.22;;;;;;;5.36;59.19;102335.47;4932485;28;20069;-60
2022/03/01 09:02:44;;;;;;;5.45;2.40;;;;;;;5.14;60.21;102327.09;4969257;28;20031;-59
2022/03/01 09:05:10;;;;;;;6.82;2.95;;;;;;;5.04;61.03;102327.13;4967700;28;20070;-61
2022/03/01 09:07:37;;;;;;;4.50;2.17;;;;;;;4.90;61.98;102328.00;4970982;28;20039;-57
2022/03/01 09:10:04;;;;;;;8.35;2.50;;;;;;;4.98;62.01;102324.75;4969477;28;20041;-61
2022/03/01 09:12:30;;;;;;;4.78;2.60;;;;;;;4.91;61.90;102319.75;4931407;28;20054;-57
2022/03/01 09:14:55;;;;;;;7.00;2.97;;;;;;;4.81;62.55;102322.47;4963951;28;20414;-58
2022/03/01 09:17:21;;;;;;;8.68;2.53;;;;;;;5.06;62.80;102318.84;4965738;28;20157;-61
2022/03/01 09:19:46;;;;;;;6.68;2.75;;;;;;;5.02;62.45;102310.59;4970700;28;20038;-60
2022/03/01 09:22:13;;;;;;;5.60;3.13;;;;;;;5.29;62.03;102313.63;4970348;28;20548;-60
2022/03/01 09:24:39;;;;;;;5.22;2.45;;;;;;;5.32;61.05;102306.94;4963850;28;20043;-61
2022/03/01 09:27:05;;;;;;;10.45;2.33;;;;;;;5.42;60.90;102312.19;4969448;28;20085;-61
2022/03/01 09:29:32;;;;;;;6.22;2.38;;;;;;;5.57;59.59;102316.63;4965188;28;20038;-60
2022/03/01 09:31:58;;;;;;;7.13;2.85;;;;;;;5.66;59.52;102309.59;4969765;28;20083;-61
2022/03/01 09:34:23;;;;;;;5.10;2.97;;;;;;;5.65;59.02;102305.34;4959690;28;20174;-57
2022/03/01 09:36:49;;;;;;;10.23;3.20;;;;;;;5.84;58.37;102319.63;4962667;28;20347;-60
2022/03/01 09:39:15;;;;;;;6.78;2.60;;;;;;;6.11;58.63;102317.22;4966262;28;20035;-60
2022/03/01 09:41:40;;;;;;;9.40;3.10;;;;;;;6.21;58.16;102323.25;4966655;28;20179;-56
2022/03/01 09:44:06;;;;;;;8.65;3.05;;;;;;;6.39;57.62;102322.53;4971665;28;20422;-61
2022/03/01 09:46:32;;;;;;;6.25;2.35;;;;;;;6.66;57.04;102316.56;4969438;28;20038;-56
2022/03/01 09:48:58;;;;;;;8.25;3.30;;;;;;;6.83;56.45;102322.22;4950336;28;20154;-61
2022/03/01 09:51:25;;;;;;;6.95;3.05;;;;;;;6.61;56.05;102313.16;4965666;28;20117;-63
2022/03/01 09:53:52;;;;;;;10.48;3.38;;;;;;;6.52;56.70;102323.72;4968880;28;20036;-55
2022/03/01 09:56:18;;;;;;;11.60;3.53;;;;;;;6.59;56.60;102326.84;4952524;28;20070;-59
2022/03/01 09:58:48;;;;;;;4.43;2.75;;;;;;;6.56;56.09;102324.75;4965547;28;20043;-55
2022/03/01 10:01:16;;;;;;;9.30;3.65;;;;;;;6.34;55.95;102324.47;4970273;28;20360;-58
2022/03/01 10:03:48;;;;;;;5.95;2.67;;;;;;;6.31;56.76;102328.50;4951802;28;20074;-57
2022/03/01 10:06:16;;;;;;;9.05;3.42;;;;;;;6.18;57.10;102323.03;4971336;28;20039;-60
2022/03/01 10:08:42;;;;;;;7.07;3.38;;;;;;;6.39;57.28;102329.75;4965325;28;20106;-53
2022/03/01 10:11:08;;;;;;;8.10;2.35;;;;;;;6.68;57.30;102335.81;4971848;28;20038;-56
2022/03/01 10:13:36;;;;;;;5.63;2.80;;;;;;;6.83;56.88;102327.59;4960295;28;20063;-59
2022/03/01 10:16:06;;;;;;;8.43;3.15;;;;;;;6.94;56.24;102336.28;4972017;28;20074;-59
2022/03/01 10:18:35;;;;;;;6.90;3.28;;;;;;;6.98;55.46;102338.13;4966767;28;20105;-57
2022/03/01 10:21:06;;;;;;;6.80;3.08;;;;;;;6.87;56.01;102323.25;4968198;28;20432;-58
2022/03/01 10:23:33;;;;;;;7.45;3.97;;;;;;;6.84;55.52;102321.16;4951119;28;20031;-59
2022/03/01 10:26:15;;;;;;;9.07;3.22;;;;;;;6.86;55.66;102316.31;4967609;28;20401;-59
2022/03/01 10:28:42;;;;;;;6.50;3.33;;;;;;;6.90;56.19;102325.38;4964367;28;20501;-58
2022/03/01 10:31:19;;;;;;;6.85;3.50;;;;;;;7.14;55.76;102338.72;4949902;28;20601;-61
2022/03/01 10:33:57;;;;;;;8.27;3.50;;;;;;;7.18;55.67;102340.50;4969878;28;20130;-57
2022/03/01 10:36:29;;;;;;;9.02;3.42;;;;;;;7.23;55.56;102335.09;4967038;28;20045;-58
2022/03/01 10:39:05;;;;;;;10.75;4.22;;;;;;;7.22;55.62;102338.03;4962406;28;20035;-60
2022/03/01 10:41:33;;;;;;;12.63;4.03;;;;;;;7.30;54.90;102338.19;4967605;28;20034;-56
2022/03/01 10:43:59;;;;;;;9.82;3.88;;;;;;;7.32;55.26;102342.47;4965951;28;20045;-60
2022/03/01 10:46:30;;;;;;;7.40;3.72;;;;;;;7.35;55.04;102344.56;4969194;28;20044;-60
2022/03/01 10:49:05;;;;;;;5.13;2.53;;;;;;;7.51;55.78;102338.66;4953161;28;20404;-61
2022/03/01 10:51:32;;;;;;;7.05;2.70;;;;;;;7.56;55.14;102343.16;4957616;28;20031;-56
2022/03/01 10:54:00;;;;;;;7.18;3.03;;;;;;;7.70;54.42;102350.16;4966204;28;20545;-61
2022/03/01 10:56:36;;;;;;;8.18;3.22;;;;;;;7.54;54.88;102342.66;4960814;28;20458;-60
2022/03/01 10:59:03;;;;;;;8.85;3.47;;;;;;;7.56;54.99;102343.16;4963781;28;20130;-61
2022/03/01 11:01:29;;;;;;;6.60;3.15;;;;;;;7.58;54.78;102335.63;4952022;28;20031;-61
2022/03/01 11:03:55;;;;;;;5.00;2.80;;;;;;;7.62;54.59;102331.25;4963181;28;20041;-60
2022/03/01 11:06:21;;;;;;;8.90;3.03;;;;;;;7.57;54.19;102334.03;4977791;28;20636;-58
2022/03/01 11:08:46;;;;;;;11.07;3.63;;;;;;;7.55;54.54;102333.53;4966824;28;20462;-61
2022/03/01 11:11:12;;;;;;;10.07;3.47;;;;;;;7.55;55.17;102333.53;4972548;28;20081;-60
2022/03/01 11:13:44;;;;;;;8.25;3.20;;;;;;;7.69;54.74;102335.16;4965205;28;20085;-61
2022/03/01 11:16:48;;;;;;;9.43;2.95;;;;;;;7.85;53.67;102325.78;4968571;28;20034;-61
2022/03/01 11:19:25;;;;;;;6.82;2.95;;;;;;;7.86;54.14;102326.53;4966470;28;20133;-59
2022/03/01 11:21:52;;;;;;;6.07;3.38;;;;;;;7.97;54.16;102327.97;4961512;28;20101;-61
2022/03/01 11:24:21;;;;;;;7.70;3.25;;;;;;;7.80;54.33;102327.75;4965514;28;20050;-61
2022/03/01 11:26:47;;;;;;;8.85;3.53;;;;;;;7.82;54.60;102330.94;4968574;28;20113;-61
2022/03/01 11:29:15;;;;;;;6.38;3.05;;;;;;;7.84;54.95;102326.06;4965250;28;20034;-58
2022/03/01 11:31:54;;;;;;;8.23;3.30;;;;;;;8.08;53.46;102327.50;4946223;28;20035;-61